createdAt,value
2019-05-09T00:02:13.222Z,12.20
2019-05-09T00:04:39.640Z,12.18
2019-05-09T00:07:05.917Z,12.41
2019-05-09T00:09:33.600Z,12.37
2019-05-09T00:11:59.847Z,12.44
2019-05-09T00:14:25.930Z,12.30
2019-05-09T00:16:53.122Z,12.37
2019-05-09T00:19:19.291Z,12.35
2019-05-09T00:21:50.289Z,12.35
2019-05-09T00:24:16.316Z,12.32
2019-05-09T00:26:44.243Z,12.40
2019-05-09T00:29:18.225Z,12.37
2019-05-09T00:32:03.483Z,12.46
2019-05-09T00:34:48.086Z,12.47
2019-05-09T00:37:14.085Z,12.50
2019-05-09T00:39:40.166Z,12.46
2019-05-09T00:42:06.308Z,12.63
2019-05-09T00:44:40.100Z,12.53
2019-05-09T00:47:13.922Z,12.46
2019-05-09T00:49:39.920Z,12.51
2019-05-09T00:52:05.899Z,12.38
2019-05-09T00:54:33.530Z,12.33
2019-05-09T00:56:59.733Z,12.45
2019-05-09T00:59:25.719Z,12.30
2019-05-09T01:01:54.126Z,12.20
2019-05-09T01:04:19.647Z,12.23
2019-05-09T01:06:45.700Z,12.07
2019-05-09T01:09:13.542Z,11.84
2019-05-09T01:11:39.751Z,11.77
2019-05-09T01:14:05.715Z,11.83
2019-05-09T01:16:33.529Z,11.73
2019-05-09T01:18:59.640Z,11.61
2019-05-09T01:21:25.773Z,11.53
2019-05-09T01:23:54.008Z,11.57
2019-05-09T01:26:19.832Z,11.48
2019-05-09T01:28:45.854Z,11.37
2019-05-09T01:31:13.289Z,11.44
2019-05-09T01:33:46.938Z,11.34
2019-05-09T01:36:14.466Z,11.17
2019-05-09T01:38:40.627Z,11.17
2019-05-09T01:41:06.728Z,11.19
2019-05-09T01:43:33.815Z,11.18
2019-05-09T01:45:59.992Z,11.20
2019-05-09T01:48:26.011Z,11.25
2019-05-09T01:50:53.721Z,11.24
2019-05-09T01:53:23.794Z,11.22
2019-05-09T01:55:59.240Z,11.15
2019-05-09T01:58:27.957Z,11.18
2019-05-09T02:00:54.146Z,11.25
2019-05-09T02:03:20.642Z,11.18
2019-05-09T02:05:46.867Z,11.19
2019-05-09T02:08:14.265Z,11.15
2019-05-09T02:10:40.448Z,11.13
2019-05-09T02:13:06.517Z,11.15
2019-05-09T02:15:37.203Z,11.18
2019-05-09T02:18:05.444Z,11.09
2019-05-09T02:20:33.223Z,11.17
2019-05-09T02:22:59.509Z,11.14
2019-05-09T02:25:25.636Z,11.18
2019-05-09T02:27:51.637Z,11.22
2019-05-09T02:30:17.993Z,11.20
2019-05-09T02:32:45.002Z,11.20
2019-05-09T02:35:11.997Z,11.17
2019-05-09T02:37:39.044Z,11.11
2019-05-09T02:40:09.297Z,11.17
2019-05-09T02:42:34.257Z,11.20
2019-05-09T02:45:00.250Z,11.19
2019-05-09T02:47:28.890Z,11.36
2019-05-09T02:49:54.528Z,11.24
2019-05-09T02:52:20.524Z,11.30
2019-05-09T02:54:49.708Z,11.25
2019-05-09T02:57:14.589Z,11.24
2019-05-09T02:59:42.519Z,11.28
2019-05-09T03:02:10.628Z,11.26
2019-05-09T03:04:39.119Z,11.31
2019-05-09T03:07:04.634Z,11.16
2019-05-09T03:09:30.623Z,11.26
2019-05-09T03:11:59.005Z,11.22
2019-05-09T03:14:24.756Z,11.27
2019-05-09T03:16:50.897Z,11.19
2019-05-09T03:19:19.412Z,11.23
2019-05-09T03:21:52.430Z,11.22
2019-05-09T03:24:18.824Z,11.13
2019-05-09T03:26:49.714Z,11.13
2019-05-09T03:29:19.023Z,11.14
2019-05-09T03:31:49.760Z,11.24
2019-05-09T03:34:13.703Z,11.27
2019-05-09T03:36:39.706Z,11.26
2019-05-09T03:39:08.174Z,11.31
2019-05-09T03:41:34.426Z,11.30
2019-05-09T03:44:00.653Z,11.27
2019-05-09T03:46:38.397Z,11.25
2019-05-09T03:49:09.330Z,11.30
2019-05-09T03:51:37.743Z,11.27
2019-05-09T03:54:03.321Z,11.30
2019-05-09T03:56:31.280Z,11.38
2019-05-09T03:58:57.835Z,11.52
2019-05-09T04:01:23.994Z,11.43
2019-05-09T04:03:49.988Z,11.55
2019-05-09T04:06:18.285Z,11.58
2019-05-09T04:08:43.896Z,11.51
2019-05-09T04:11:10.842Z,11.58
2019-05-09T04:13:38.934Z,11.52
2019-05-09T04:16:07.368Z,11.61
2019-05-09T04:18:32.913Z,11.64
2019-05-09T04:20:59.214Z,11.64
2019-05-09T04:23:27.384Z,11.63
2019-05-09T04:25:55.076Z,11.60
2019-05-09T04:28:21.080Z,11.64
2019-05-09T04:30:47.773Z,11.62
2019-05-09T04:33:13.928Z,11.64
2019-05-09T04:35:39.947Z,11.74
2019-05-09T04:38:07.441Z,11.74
2019-05-09T04:40:37.797Z,11.87
2019-05-09T04:43:14.087Z,11.75
2019-05-09T04:45:38.820Z,11.70
2019-05-09T04:48:02.170Z,11.58
2019-05-09T04:50:28.186Z,11.63
2019-05-09T04:52:54.258Z,11.61
2019-05-09T04:55:21.912Z,11.64
2019-05-09T04:57:48.573Z,11.60
2019-05-09T05:00:18.410Z,11.60
2019-05-09T05:02:48.325Z,11.66
2019-05-09T05:05:14.372Z,11.61
2019-05-09T05:07:40.484Z,11.46
2019-05-09T05:10:09.015Z,11.56
2019-05-09T05:12:34.889Z,11.45
2019-05-09T05:15:00.892Z,11.52
2019-05-09T05:17:28.270Z,11.39
2019-05-09T05:19:55.007Z,11.59
2019-05-09T05:22:23.025Z,11.63
2019-05-09T05:24:51.034Z,11.72
2019-05-09T05:27:18.847Z,11.82
2019-05-09T05:29:45.037Z,11.78
2019-05-09T05:32:12.992Z,11.63
2019-05-09T05:34:42.254Z,11.66
2019-05-09T05:37:08.868Z,11.59
2019-05-09T05:39:37.356Z,11.66
2019-05-09T05:42:02.963Z,11.90
2019-05-09T05:44:29.967Z,11.79
2019-05-09T05:47:17.904Z,11.79
2019-05-09T05:49:43.825Z,11.79
2019-05-09T05:52:09.965Z,11.71
2019-05-09T05:54:37.850Z,11.82
2019-05-09T05:57:04.198Z,11.75
2019-05-09T05:59:30.202Z,11.88
2019-05-09T06:01:58.267Z,11.82
2019-05-09T06:04:24.167Z,11.82
2019-05-09T06:06:50.272Z,11.71
2019-05-09T06:09:18.680Z,11.86
2019-05-09T06:11:44.208Z,11.93
2019-05-09T06:14:11.847Z,11.96
2019-05-09T06:16:38.143Z,11.87
2019-05-09T06:19:04.171Z,11.92
2019-05-09T06:21:30.288Z,11.97
2019-05-09T06:23:58.442Z,11.88
2019-05-09T06:26:24.598Z,11.99
2019-05-09T06:28:50.600Z,12.14
2019-05-09T06:31:17.858Z,12.17
2019-05-09T06:33:47.072Z,12.11
2019-05-09T06:36:12.051Z,12.16
2019-05-09T06:38:38.059Z,12.20
2019-05-09T06:41:05.668Z,12.20
2019-05-09T06:43:33.543Z,12.19
2019-05-09T06:46:18.326Z,12.18
2019-05-09T06:48:44.704Z,12.21
2019-05-09T06:51:10.730Z,12.35
2019-05-09T06:53:38.011Z,12.46
2019-05-09T06:56:04.280Z,12.41
2019-05-09T06:58:30.356Z,12.46
2019-05-09T07:01:00.851Z,13.10
2019-05-09T07:03:31.390Z,13.39
2019-05-09T07:06:02.348Z,13.63
2019-05-09T07:08:41.844Z,13.69
2019-05-09T07:11:07.867Z,13.74
2019-05-09T07:13:33.843Z,13.23
2019-05-09T07:15:59.845Z,13.18
2019-05-09T07:18:27.684Z,13.53
2019-05-09T07:20:53.746Z,13.66
2019-05-09T07:23:19.767Z,13.51
2019-05-09T07:25:50.428Z,13.63
2019-05-09T07:28:17.960Z,13.89
2019-05-09T07:30:52.196Z,13.97
2019-05-09T07:33:20.084Z,14.18
2019-05-09T07:35:47.578Z,14.26
2019-05-09T07:38:13.692Z,14.19
2019-05-09T07:40:39.716Z,14.17
2019-05-09T07:43:07.736Z,14.22
2019-05-09T07:45:33.670Z,14.23
2019-05-09T07:47:59.661Z,13.68
2019-05-09T07:50:27.671Z,14.23
2019-05-09T07:52:53.575Z,15.27
2019-05-09T07:55:19.560Z,15.84
2019-05-09T07:57:54.273Z,15.66
2019-05-09T08:00:18.393Z,15.89
2019-05-09T08:02:44.480Z,15.84
2019-05-09T08:05:14.324Z,15.39
2019-05-09T08:07:40.718Z,15.60
2019-05-09T08:10:08.772Z,15.55
2019-05-09T08:12:34.911Z,15.52
2019-05-09T08:15:08.542Z,15.69
2019-05-09T08:17:28.973Z,15.58
2019-05-09T08:19:55.136Z,15.12
2019-05-09T08:22:25.677Z,15.31
2019-05-09T08:24:49.122Z,15.09
2019-05-09T08:27:17.348Z,14.70
2019-05-09T08:29:43.164Z,14.95
2019-05-09T08:32:09.190Z,14.37
2019-05-09T08:34:37.537Z,14.47
2019-05-09T08:37:03.463Z,14.49
2019-05-09T08:39:29.445Z,14.33
2019-05-09T08:41:55.483Z,14.41
2019-05-09T08:44:21.596Z,14.57
2019-05-09T08:46:48.177Z,14.91
2019-05-09T08:49:14.376Z,15.31
2019-05-09T08:51:56.121Z,15.34
2019-05-09T08:54:12.215Z,14.87
2019-05-09T08:56:38.824Z,14.96
2019-05-09T08:59:04.927Z,14.44
2019-05-09T09:01:49.501Z,14.50
2019-05-09T09:03:59.169Z,14.86
2019-05-09T09:06:27.684Z,15.08
2019-05-09T09:08:53.298Z,15.38
2019-05-09T09:11:19.371Z,15.39
2019-05-09T09:13:45.432Z,15.24
2019-05-09T09:16:18.316Z,15.54
2019-05-09T09:18:39.345Z,15.76
2019-05-09T09:21:07.858Z,16.06
2019-05-09T09:23:44.088Z,16.37
2019-05-09T09:26:01.408Z,16.99
2019-05-09T09:28:27.728Z,17.75
2019-05-09T09:30:53.932Z,17.84
2019-05-09T11:27:35.797Z,19.38
2019-05-09T12:03:40.404Z,19.25
2019-05-09T12:06:07.962Z,19.10
2019-05-09T12:08:34.321Z,19.10
2019-05-09T12:11:00.294Z,19.04
2019-05-09T12:13:26.300Z,19.15
2019-05-09T12:15:52.326Z,19.08
2019-05-09T12:18:18.428Z,18.92
2019-05-09T12:20:44.428Z,18.63
2019-05-09T12:23:10.474Z,19.29
2019-05-09T12:25:38.651Z,19.54
2019-05-09T12:28:04.371Z,19.36
2019-05-09T12:30:30.357Z,19.86
2019-05-09T12:32:58.623Z,20.66
2019-05-09T12:35:24.345Z,20.22
2019-05-09T12:37:50.385Z,20.37
2019-05-09T12:40:20.098Z,20.06
2019-05-09T12:42:44.834Z,20.27
2019-05-09T12:45:11.608Z,20.12
2019-05-09T12:47:39.787Z,19.85
2019-05-09T12:50:08.430Z,19.60
2019-05-09T12:52:34.261Z,19.69
2019-05-09T12:55:00.361Z,19.75
2019-05-09T12:57:28.883Z,19.90
2019-05-09T12:59:55.112Z,19.39
2019-05-09T13:02:21.116Z,19.24
2019-05-09T13:04:47.716Z,18.78
2019-05-09T13:07:14.241Z,18.85
2019-05-09T13:09:40.303Z,18.67
2019-05-09T13:12:08.656Z,18.37
2019-05-09T13:14:34.857Z,18.07
2019-05-09T13:17:02.754Z,17.93
2019-05-09T13:19:38.196Z,17.87
2019-05-09T13:22:04.229Z,18.09
2019-05-09T13:24:30.245Z,18.70
2019-05-09T13:26:56.376Z,19.30
2019-05-09T13:29:22.496Z,18.82
2019-05-09T13:31:48.513Z,18.37
2019-05-09T13:34:14.630Z,18.32
2019-05-09T13:36:40.668Z,18.24
2019-05-09T13:39:08.655Z,18.36
2019-05-09T13:41:37.474Z,18.25
2019-05-09T13:44:05.336Z,17.84
2019-05-09T13:46:31.485Z,17.65
2019-05-09T13:49:10.977Z,17.74
2019-05-09T13:51:25.608Z,17.75
2019-05-09T13:53:51.642Z,17.79
2019-05-09T13:56:18.020Z,17.74
2019-05-09T13:58:44.406Z,17.35
2019-05-09T14:01:10.412Z,17.25
2019-05-09T14:03:38.623Z,17.37
2019-05-09T14:06:04.350Z,17.39
2019-05-09T14:08:30.352Z,17.40
2019-05-09T14:10:58.417Z,17.40
2019-05-09T14:13:24.389Z,17.24
2019-05-09T14:15:50.368Z,17.10
2019-05-09T14:18:18.930Z,17.04
2019-05-09T14:20:44.620Z,17.04
2019-05-09T14:23:11.651Z,16.74
2019-05-09T14:25:38.251Z,17.21
2019-05-09T14:28:05.487Z,17.26
2019-05-09T14:30:31.502Z,17.73
2019-05-09T14:33:00.092Z,18.20
2019-05-09T14:35:27.786Z,18.52
2019-05-09T14:37:53.997Z,18.49
2019-05-09T14:40:20.130Z,18.83
2019-05-09T14:42:46.109Z,19.24
2019-05-09T14:45:12.282Z,18.85
2019-05-09T14:47:42.014Z,18.89
2019-05-09T14:50:06.572Z,19.31
2019-05-09T14:52:32.703Z,19.11
2019-05-09T14:54:58.887Z,19.03
2019-05-09T14:57:25.340Z,18.70
2019-05-09T14:59:51.709Z,18.94
2019-05-09T15:02:18.637Z,19.07
2019-05-09T15:04:44.839Z,18.80
2019-05-09T15:07:10.876Z,18.55
2019-05-09T15:09:37.199Z,18.47
2019-05-09T15:12:03.341Z,18.38
2019-05-09T15:14:29.335Z,18.44
2019-05-09T15:16:57.470Z,18.61
2019-05-09T15:19:23.342Z,18.52
2019-05-09T15:21:49.356Z,18.26
2019-05-09T15:24:15.408Z,18.13
2019-05-09T15:26:41.491Z,18.22
2019-05-09T15:29:08.147Z,18.22
2019-05-09T15:31:34.786Z,18.19
2019-05-09T15:34:01.889Z,18.09
2019-05-09T15:36:27.972Z,17.76
2019-05-09T15:38:53.982Z,17.46
2019-05-09T15:41:19.979Z,17.41
2019-05-09T15:43:48.539Z,17.47
2019-05-09T15:46:18.478Z,17.83
2019-05-09T15:48:43.716Z,17.75
2019-05-09T15:51:09.852Z,17.91
2019-05-09T15:53:37.985Z,18.20
2019-05-09T15:56:07.884Z,18.14
2019-05-09T15:58:34.748Z,18.27
2019-05-09T16:01:00.744Z,18.10
2019-05-09T16:03:27.841Z,18.02
2019-05-09T16:05:54.322Z,17.93
2019-05-09T16:08:20.398Z,17.94
2019-05-09T16:10:46.426Z,17.95
2019-05-09T16:13:12.496Z,18.04
2019-05-09T16:15:38.769Z,17.81
2019-05-09T16:18:04.752Z,17.43
2019-05-09T16:20:37.677Z,17.29
2019-05-09T16:22:58.838Z,17.43
2019-05-09T16:25:24.813Z,17.52
2019-05-09T16:27:50.838Z,17.60
2019-05-09T16:30:17.439Z,17.53
2019-05-09T16:32:43.550Z,17.61
2019-05-09T16:35:11.732Z,17.63
2019-05-09T16:37:56.794Z,17.62
2019-05-09T16:40:08.338Z,17.70
2019-05-09T16:42:34.262Z,17.64
2019-05-09T16:45:00.396Z,17.72
2019-05-09T16:47:28.410Z,17.77
2019-05-09T16:49:54.491Z,17.81
2019-05-09T16:52:20.491Z,17.78
2019-05-09T16:54:50.149Z,17.80
2019-05-09T16:57:18.238Z,17.93
2019-05-09T16:59:44.387Z,17.88
2019-05-09T17:02:21.749Z,17.92
2019-05-09T17:04:38.795Z,18.04
2019-05-09T17:07:04.836Z,17.92
2019-05-09T17:09:33.264Z,17.81
2019-05-09T17:11:59.668Z,17.75
2019-05-09T17:14:25.656Z,17.65
2019-05-09T17:16:52.856Z,17.73
2019-05-09T17:19:19.620Z,17.72
2019-05-09T17:22:04.085Z,17.68
2019-05-09T17:24:30.089Z,17.53
2019-05-09T17:26:58.006Z,17.56
2019-05-09T17:29:24.124Z,17.46
2019-05-09T17:31:50.192Z,16.58
2019-05-09T17:34:17.987Z,15.92
2019-05-09T17:36:44.163Z,15.99
2019-05-09T17:39:10.157Z,15.83
2019-05-09T17:41:37.918Z,15.76
2019-05-09T17:44:04.162Z,15.53
2019-05-09T17:46:30.816Z,15.78
2019-05-09T17:48:58.266Z,15.53
2019-05-09T17:51:33.115Z,15.14
2019-05-09T17:53:58.169Z,14.99
2019-05-09T17:56:22.377Z,14.73
2019-05-09T17:58:48.633Z,14.51
2019-05-09T18:01:14.866Z,14.32
2019-05-09T18:03:41.131Z,14.32
2019-05-09T18:06:08.300Z,14.73
2019-05-09T18:08:34.559Z,14.62
2019-05-09T18:11:00.652Z,14.39
2019-05-09T18:13:29.584Z,14.43
2019-05-09T18:15:55.156Z,14.30
2019-05-09T18:18:21.183Z,14.24
2019-05-09T18:20:47.368Z,14.12
2019-05-09T18:23:13.469Z,14.12
2019-05-09T18:25:39.576Z,14.10
2019-05-09T18:28:05.991Z,14.01
2019-05-09T18:30:32.045Z,13.98
2019-05-09T18:33:02.693Z,13.97
2019-05-09T18:35:30.360Z,14.13
2019-05-09T18:37:58.732Z,14.06
2019-05-09T18:40:24.544Z,13.75
2019-05-09T18:42:50.604Z,13.94
2019-05-09T18:45:18.618Z,14.01
2019-05-09T18:47:44.628Z,14.07
2019-05-09T18:50:10.927Z,14.26
2019-05-09T18:52:37.313Z,14.25
2019-05-09T18:55:05.646Z,14.38
2019-05-09T18:57:31.764Z,14.51
2019-05-09T18:59:57.836Z,14.52
2019-05-09T19:02:24.336Z,14.32
2019-05-09T19:04:50.415Z,14.35
2019-05-09T19:07:22.310Z,14.28
2019-05-09T19:09:44.361Z,14.97
2019-05-09T19:12:10.361Z,14.81
2019-05-09T19:14:36.559Z,14.54
2019-05-09T19:17:21.302Z,14.42
2019-05-09T19:19:49.166Z,14.54
2019-05-09T19:22:22.538Z,14.49
2019-05-09T19:24:44.508Z,14.29
2019-05-09T19:27:10.686Z,14.10
2019-05-09T19:29:36.685Z,14.03
2019-05-09T19:32:02.840Z,14.06
2019-05-09T19:34:28.998Z,14.09
2019-05-09T19:36:55.133Z,14.10
2019-05-09T19:39:21.158Z,14.08
2019-05-09T19:41:47.227Z,14.20
2019-05-09T19:44:13.224Z,14.14
2019-05-09T19:46:39.389Z,14.14
2019-05-09T19:49:05.467Z,14.18
2019-05-09T19:51:31.581Z,14.18
2019-05-09T19:53:57.593Z,14.24
2019-05-09T19:56:23.626Z,14.06
2019-05-09T19:58:51.656Z,14.17
2019-05-09T20:01:19.682Z,14.12
2019-05-09T20:03:45.702Z,14.22
2019-05-09T20:06:12.196Z,14.62
2019-05-09T20:08:38.315Z,14.60
2019-05-09T20:11:18.210Z,14.64
2019-05-09T20:13:48.657Z,14.44
2019-05-09T20:16:14.758Z,14.44
2019-05-09T20:18:40.768Z,14.52
2019-05-09T20:21:06.878Z,14.38
2019-05-09T20:23:36.356Z,14.52
2019-05-09T20:26:02.331Z,14.45
2019-05-09T20:28:28.481Z,14.40
2019-05-09T20:30:54.647Z,14.33
2019-05-09T20:33:20.689Z,14.20
2019-05-09T20:35:46.696Z,14.35
2019-05-09T20:38:12.863Z,14.17
2019-05-09T20:40:39.191Z,14.07
2019-05-09T20:43:05.327Z,13.83
2019-05-09T20:45:31.428Z,13.80
2019-05-09T20:47:57.604Z,13.84
2019-05-09T20:50:23.619Z,13.80
2019-05-09T20:52:49.638Z,13.70
2019-05-09T20:55:15.605Z,13.65
2019-05-09T20:57:41.749Z,13.60
2019-05-09T21:00:07.978Z,13.59
2019-05-09T21:02:34.036Z,13.47
2019-05-09T21:05:00.087Z,13.53
2019-05-09T21:07:26.318Z,13.55
2019-05-09T21:09:52.512Z,13.39
2019-05-09T21:12:18.523Z,13.44
2019-05-09T21:14:44.560Z,13.38
2019-05-09T21:17:10.710Z,13.38
2019-05-09T21:19:36.770Z,13.41
2019-05-09T21:22:02.746Z,13.31
2019-05-09T21:24:29.143Z,13.31
2019-05-09T21:26:55.122Z,13.17
2019-05-09T21:29:21.108Z,13.05
2019-05-09T21:31:47.149Z,12.97
2019-05-09T21:34:13.189Z,13.01
2019-05-09T21:36:39.296Z,13.21
2019-05-09T21:39:05.835Z,13.10
2019-05-09T21:41:31.918Z,13.10
2019-05-09T21:43:57.992Z,12.87
2019-05-09T21:46:24.095Z,12.89
2019-05-09T21:48:50.106Z,12.74
2019-05-09T21:51:16.192Z,12.64
2019-05-09T21:53:42.278Z,12.63
2019-05-09T21:56:08.272Z,12.64
2019-05-09T21:58:34.301Z,12.67
2019-05-09T22:01:00.591Z,12.50
2019-05-09T22:03:26.577Z,12.45
2019-05-09T22:05:52.709Z,12.48
2019-05-09T22:08:18.693Z,12.56
2019-05-09T22:10:44.694Z,12.42
2019-05-09T22:13:10.702Z,12.37
2019-05-09T22:15:36.711Z,12.28
2019-05-09T22:18:03.190Z,12.20
2019-05-09T22:20:29.218Z,12.06
2019-05-09T22:22:55.320Z,11.85
2019-05-09T22:25:21.410Z,11.79
2019-05-09T22:27:47.423Z,11.82
2019-05-09T22:30:14.362Z,11.85
2019-05-09T22:32:40.492Z,11.77
2019-05-09T22:35:07.108Z,11.64
2019-05-09T22:37:33.183Z,11.64
2019-05-09T22:39:59.165Z,11.67
2019-05-09T22:42:25.248Z,11.59
2019-05-09T22:44:51.250Z,11.48
2019-05-09T22:47:17.225Z,11.52
2019-05-09T22:49:43.322Z,11.43
2019-05-09T22:52:09.332Z,11.28
2019-05-09T22:54:35.364Z,11.30
2019-05-09T22:57:01.658Z,11.33
2019-05-09T22:59:27.721Z,11.27
2019-05-09T23:01:53.707Z,11.27
2019-05-09T23:04:19.770Z,11.17
2019-05-09T23:06:45.885Z,11.34
2019-05-09T23:09:11.905Z,11.31
2019-05-09T23:11:37.902Z,11.14
2019-05-09T23:14:04.076Z,11.05
2019-05-09T23:16:31.990Z,10.98
2019-05-09T23:18:57.986Z,11.00
2019-05-09T23:21:28.236Z,10.95
2019-05-09T23:24:05.368Z,10.95
2019-05-09T23:26:31.339Z,10.89
2019-05-09T23:28:57.394Z,10.85
2019-05-09T23:31:25.399Z,10.81
2019-05-09T23:33:51.368Z,10.73
2019-05-09T23:36:17.492Z,10.71
2019-05-09T23:38:54.400Z,10.68
2019-05-09T23:41:20.397Z,10.57
2019-05-09T23:43:46.467Z,10.52
2019-05-09T23:46:12.577Z,10.48
2019-05-09T23:48:38.542Z,10.51
2019-05-09T23:51:04.566Z,10.49
2019-05-09T23:53:36.590Z,10.45
2019-05-09T23:56:20.945Z,10.45
2019-05-09T23:59:05.408Z,10.42
